Time;durP1;ratioP1;P1;durP2;ratioP2;P2;SDS_P1;SDS_P2;PMS_P1;PMS_P2;Temp;Humidity;BMP_temperature;BMP_pressure;BME280_temperature;BME280_humidity;BME280_pressure;Samples;Min_cycle;Max_cycle;Signal;HPM_P1;HPM_P2
2023/05/27 00:01:12;;;;;;;19.17;4.40;;;;;;;4.80;100.00;97585.22;10495140;28;20207;-65
2023/05/27 00:06:13;;;;;;;17.47;3.77;;;;;;;4.62;100.00;97595.00;10495128;28;20191;-64
2023/05/27 00:11:13;;;;;;;14.30;3.67;;;;;;;4.53;100.00;97583.44;10494671;28;20238;-65
2023/05/27 00:16:13;;;;;;;16.03;5.13;;;;;;;4.42;100.00;97588.47;10494705;28;20199;-63
2023/05/27 00:21:14;;;;;;;16.43;4.20;;;;;;;4.37;100.00;97590.53;10494601;28;20217;-65
2023/05/27 00:26:15;;;;;;;15.70;3.73;;;;;;;4.38;100.00;97587.00;10494365;28;20222;-65
2023/05/27 00:31:19;;;;;;;8.87;3.47;;;;;;;4.18;100.00;97578.72;10492954;28;20717;-65
2023/05/27 00:36:19;;;;;;;16.67;4.23;;;;;;;4.07;100.00;97588.91;10492848;28;20191;-65
2023/05/27 00:41:20;;;;;;;15.30;4.30;;;;;;;3.98;100.00;97592.91;10493840;28;20258;-64
2023/05/27 00:46:20;;;;;;;14.43;3.87;;;;;;;3.88;100.00;97592.63;10494122;28;20188;-64
2023/05/27 00:51:21;;;;;;;15.50;4.30;;;;;;;3.81;100.00;97600.84;10475782;28;20218;-64
2023/05/27 00:56:21;;;;;;;17.77;4.90;;;;;;;3.70;100.00;97602.31;10492728;28;20191;-65
2023/05/27 01:01:25;;;;;;;17.73;4.50;;;;;;;3.73;100.00;97603.91;10493180;28;20229;-65
2023/05/27 01:06:40;;;;;;;11.50;3.90;;;;;;;3.77;100.00;97608.00;10492241;28;20192;-65
2023/05/27 01:11:54;;;;;;;12.43;4.60;;;;;;;3.74;100.00;97600.41;10482881;28;20218;-64
2023/05/27 01:16:56;;;;;;;16.03;4.73;;;;;;;3.68;100.00;97603.38;10467320;28;20236;-64
2023/05/27 01:21:58;;;;;;;9.20;3.80;;;;;;;3.70;100.00;97604.91;10501509;28;20807;-65
2023/05/27 01:27:01;;;;;;;17.10;4.70;;;;;;;3.54;100.00;97597.22;10501218;28;20191;-63
2023/05/27 01:32:05;;;;;;;13.37;4.00;;;;;;;3.37;100.00;97593.03;10499968;28;20219;-64
2023/05/27 01:37:08;;;;;;;12.60;4.60;;;;;;;3.27;100.00;97594.50;10483069;28;20274;-64
2023/05/27 01:42:09;;;;;;;12.27;3.90;;;;;;;3.21;100.00;97592.25;10465779;28;20712;-65
2023/05/27 01:47:10;;;;;;;22.17;4.13;;;;;;;3.19;100.00;97594.94;10482461;28;20191;-65
2023/05/27 01:52:11;;;;;;;12.90;4.23;;;;;;;3.16;100.00;97596.88;10499923;28;20250;-65
2023/05/27 01:57:11;;;;;;;13.37;4.13;;;;;;;3.18;100.00;97582.91;10482322;28;20214;-65
2023/05/27 02:02:13;;;;;;;16.57;4.70;;;;;;;3.17;100.00;97580.41;10481948;28;20681;-64
2023/05/27 02:07:13;;;;;;;14.07;4.10;;;;;;;3.23;100.00;97577.47;10481965;28;20186;-62
2023/05/27 02:12:13;;;;;;;14.73;4.60;;;;;;;3.12;100.00;97572.91;10481649;28;20314;-65
2023/05/27 02:17:14;;;;;;;12.87;4.70;;;;;;;3.04;100.00;97570.75;10499490;28;20195;-64
2023/05/27 02:22:15;;;;;;;10.83;4.20;;;;;;;3.01;100.00;97575.28;10481145;28;20203;-64
2023/05/27 02:27:15;;;;;;;15.70;4.73;;;;;;;3.05;100.00;97571.63;10499067;28;20191;-64
2023/05/27 02:32:16;;;;;;;19.93;4.67;;;;;;;3.06;100.00;97569.84;10497859;28;20284;-64
2023/05/27 02:37:17;;;;;;;13.53;4.83;;;;;;;3.03;100.00;97578.63;10480643;28;20191;-64
2023/05/27 02:42:18;;;;;;;17.83;5.10;;;;;;;3.06;100.00;97578.44;10498179;28;20784;-63
2023/05/27 02:47:18;;;;;;;18.90;4.73;;;;;;;3.07;100.00;97574.94;10497422;28;20195;-62
2023/05/27 02:52:19;;;;;;;17.67;4.83;;;;;;;3.02;100.00;97571.78;10479652;28;20215;-63
2023/05/27 02:57:19;;;;;;;10.83;4.50;;;;;;;3.00;100.00;97574.47;10480150;28;20191;-65
2023/05/27 03:02:20;;;;;;;15.53;4.60;;;;;;;3.09;100.00;97578.25;10483830;28;20209;-65
2023/05/27 03:07:20;;;;;;;19.30;5.47;;;;;;;3.00;100.00;97573.63;10520908;28;20722;-64
2023/05/27 03:12:20;;;;;;;22.37;4.90;;;;;;;2.94;100.00;97582.59;10538607;28;20268;-64
2023/05/27 03:17:21;;;;;;;16.03;5.17;;;;;;;2.99;100.00;97583.16;10504077;28;20186;-64
2023/05/27 03:22:22;;;;;;;21.73;5.20;;;;;;;3.00;100.00;97577.06;10538252;28;20199;-63
2023/05/27 03:27:22;;;;;;;17.90;5.17;;;;;;;3.07;100.00;97582.72;10538507;28;20209;-62
2023/05/27 03:32:23;;;;;;;14.37;5.27;;;;;;;3.04;100.00;97588.88;10519142;28;20276;-64
2023/05/27 03:37:24;;;;;;;15.07;5.13;;;;;;;3.06;100.00;97586.19;10503515;28;20206;-64
2023/05/27 03:42:35;;;;;;;21.43;5.40;;;;;;;3.02;100.00;97576.97;10519613;28;20254;-64
2023/05/27 03:47:35;;;;;;;11.03;4.67;;;;;;;3.00;100.00;97582.22;10536497;28;20186;-64
2023/05/27 03:52:36;;;;;;;12.70;5.07;;;;;;;2.98;100.00;97584.06;10519572;28;20218;-65
2023/05/27 03:57:37;;;;;;;10.97;4.63;;;;;;;3.06;100.00;97590.56;10519391;28;20194;-65
2023/05/27 04:02:38;;;;;;;22.13;4.97;;;;;;;3.15;100.00;97598.63;10537082;28;20767;-64
2023/05/27 04:07:38;;;;;;;17.23;4.93;;;;;;;3.15;100.00;97608.97;10517231;28;20213;-64
2023/05/27 04:12:40;;;;;;;25.20;5.93;;;;;;;3.24;100.00;97599.84;10518836;28;20600;-65
2023/05/27 04:17:40;;;;;;;18.53;5.10;;;;;;;3.31;100.00;97595.16;10518377;28;20282;-65
2023/05/27 04:22:43;;;;;;;18.47;4.93;;;;;;;3.45;100.00;97586.59;10536687;28;20200;-65
2023/05/27 04:27:43;;;;;;;14.80;4.63;;;;;;;3.70;100.00;97593.72;10518258;28;20186;-64
2023/05/27 04:32:44;;;;;;;17.33;5.63;;;;;;;3.86;100.00;97597.06;10536125;28;20214;-65
2023/05/27 04:37:44;;;;;;;22.13;5.87;;;;;;;4.03;100.00;97596.03;10517964;28;20190;-65
2023/05/27 04:42:45;;;;;;;17.03;5.50;;;;;;;4.29;100.00;97593.63;10517241;28;20700;-65
2023/05/27 04:47:46;;;;;;;16.83;5.03;;;;;;;4.47;100.00;97576.03;10534451;28;20195;-65
2023/05/27 04:52:47;;;;;;;21.80;6.07;;;;;;;4.71;100.00;97578.03;10535377;28;20765;-64
2023/05/27 04:57:48;;;;;;;17.13;5.07;;;;;;;4.95;100.00;97576.44;10535656;28;20198;-65
2023/05/27 05:02:48;;;;;;;18.73;4.30;;;;;;;5.24;100.00;97576.28;10516503;28;20367;-65
2023/05/27 05:07:49;;;;;;;18.40;4.97;;;;;;;5.46;100.00;97578.28;10514091;28;20193;-64
2023/05/27 05:12:50;;;;;;;18.50;5.37;;;;;;;5.76;100.00;97568.50;10516522;28;20210;-65
2023/05/27 05:17:51;;;;;;;18.93;5.10;;;;;;;6.19;100.00;97569.00;10517110;28;20190;-65
2023/05/27 05:22:52;;;;;;;14.87;4.97;;;;;;;6.57;100.00;97577.59;10516838;28;20251;-66
2023/05/27 05:27:53;;;;;;;14.00;4.10;;;;;;;7.04;100.00;97568.13;10516988;28;20289;-65
2023/05/27 05:32:54;;;;;;;18.43;4.97;;;;;;;7.50;100.00;97575.13;10516670;28;20242;-67
2023/05/27 05:37:56;;;;;;;14.87;4.30;;;;;;;7.68;100.00;97564.25;10516965;28;20203;-66
2023/05/27 05:42:57;;;;;;;15.80;4.57;;;;;;;7.99;100.00;97570.56;10516266;28;20261;-66
2023/05/27 05:47:57;;;;;;;20.17;5.43;;;;;;;8.71;100.00;97571.91;10534801;28;20839;-65
2023/05/27 05:53:01;;;;;;;19.37;5.03;;;;;;;9.13;100.00;97573.75;10516349;28;20215;-66
2023/05/27 05:58:02;;;;;;;13.77;4.77;;;;;;;9.88;100.00;97563.19;10523530;28;20562;-66
2023/05/27 06:03:03;;;;;;;17.77;4.80;;;;;;;9.95;98.92;97544.22;10523773;28;20203;-66
2023/05/27 06:08:18;;;;;;;20.50;4.60;;;;;;;10.75;93.82;97528.56;10523544;28;20194;-65
2023/05/27 06:13:26;;;;;;;20.50;4.10;;;;;;;10.95;89.37;97523.28;10523387;28;20215;-66
2023/05/27 06:18:29;;;;;;;15.20;3.88;;;;;;;11.49;85.10;97515.78;10523249;28;20187;-66
2023/05/27 06:23:29;;;;;;;19.27;4.40;;;;;;;11.77;82.83;97495.63;10523123;28;20683;-66
2023/05/27 06:28:41;;;;;;;19.10;4.72;;;;;;;11.98;81.29;97505.94;10519340;28;20274;-66
2023/05/27 06:33:43;;;;;;;13.10;4.13;;;;;;;12.06;77.30;97479.78;10497547;28;20780;-66
2023/05/27 06:38:43;;;;;;;16.17;4.57;;;;;;;13.26;72.90;97443.53;10480822;28;20282;-67
2023/05/27 06:43:44;;;;;;;20.98;4.32;;;;;;;13.58;71.49;97441.25;10520778;22;20258;-67
2023/05/27 06:48:57;;;;;;;13.07;4.70;;;;;;;12.95;72.80;97467.63;10518059;28;20210;-67
2023/05/27 06:53:57;;;;;;;16.15;4.45;;;;;;;13.83;70.13;97445.66;10565069;28;21078;-68
2023/05/27 06:59:04;;;;;;;17.25;4.88;;;;;;;13.61;70.92;97456.72;10530563;28;20289;-68
2023/05/27 07:04:05;;;;;;;15.60;4.53;;;;;;;14.78;63.21;97368.06;10571195;28;20213;-68
2023/05/27 07:09:18;;;;;;;18.08;4.35;;;;;;;15.58;63.74;97404.13;10558685;28;20526;-68
2023/05/27 07:14:19;;;;;;;15.73;4.55;;;;;;;14.84;64.34;97406.94;10557963;28;20299;-68
2023/05/27 07:19:19;;;;;;;13.98;4.32;;;;;;;15.25;59.43;97326.84;10557268;28;20196;-68
2023/05/27 07:24:25;;;;;;;16.08;4.05;;;;;;;15.51;61.48;97392.59;10546388;28;20623;-68
2023/05/27 07:29:27;;;;;;;15.32;3.83;;;;;;;15.61;61.13;97387.13;10551529;28;20218;-68
2023/05/27 07:34:28;;;;;;;11.05;3.50;;;;;;;16.23;58.88;97360.72;10577179;28;20225;-68
2023/05/27 07:39:28;;;;;;;13.50;3.38;;;;;;;15.71;58.85;97350.75;10534772;28;20228;-68
2023/05/27 07:44:29;;;;;;;14.75;3.58;;;;;;;15.98;57.08;97335.44;10551527;28;20224;-68
2023/05/27 07:49:30;;;;;;;8.60;3.40;;;;;;;15.96;58.86;97377.91;10550325;28;20696;-68
2023/05/27 07:54:53;;;;;;;9.85;3.50;;;;;;;15.45;59.93;97394.13;10575120;28;20245;-68
2023/05/27 07:59:54;;;;;;;16.20;3.97;;;;;;;16.02;59.87;97394.88;10552529;28;20235;-67
2023/05/27 08:04:57;;;;;;;10.98;3.83;;;;;;;16.62;55.90;97332.47;10553765;28;20209;-67
2023/05/27 08:10:10;;;;;;;13.73;3.92;;;;;;;16.60;55.88;97326.53;10573965;28;20563;-68
2023/05/27 08:15:30;;;;;;;15.00;3.83;;;;;;;16.45;55.26;97307.13;10575788;28;20198;-69
2023/05/27 08:20:37;;;;;;;12.73;3.45;;;;;;;16.02;56.21;97334.91;10577293;28;20194;-68
2023/05/27 08:25:48;;;;;;;13.38;3.63;;;;;;;16.11;53.46;97269.59;10553973;28;20197;-68
2023/05/27 08:30:56;;;;;;;15.32;3.40;;;;;;;15.99;55.46;97306.19;10554048;28;20222;-68
2023/05/27 08:36:07;;;;;;;10.57;3.38;;;;;;;17.59;50.76;97248.63;10556565;28;20703;-67
2023/05/27 08:41:08;;;;;;;11.65;4.00;;;;;;;17.08;53.00;97281.25;10556664;28;20256;-68
2023/05/27 08:46:09;;;;;;;10.90;3.13;;;;;;;16.29;53.13;97263.16;10556623;28;20295;-68
2023/05/27 08:51:10;;;;;;;15.25;3.55;;;;;;;16.72;52.36;97266.03;10556221;28;20217;-68
2023/05/27 08:56:17;;;;;;;14.52;4.30;;;;;;;16.97;52.94;97269.28;10540432;28;20707;-68
2023/05/27 09:01:21;;;;;;;14.07;3.90;;;;;;;17.45;54.90;97329.78;10555810;28;20205;-68
2023/05/27 09:06:23;;;;;;;8.38;3.38;;;;;;;18.24;53.29;97312.28;10557991;28;20557;-68
2023/05/27 09:11:26;;;;;;;12.18;3.17;;;;;;;18.56;50.78;97257.03;10575399;28;20294;-68
2023/05/27 09:16:26;;;;;;;8.32;3.17;;;;;;;18.56;47.04;97180.91;10575626;28;20281;-67
2023/05/27 09:21:26;;;;;;;11.75;3.60;;;;;;;19.32;46.72;97187.97;10576154;28;20288;-68
2023/05/27 09:26:27;;;;;;;12.15;3.55;;;;;;;19.31;46.53;97185.53;10575433;28;20189;-68
2023/05/27 09:31:27;;;;;;;8.63;3.10;;;;;;;18.63;47.54;97196.88;10581141;28;20304;-67
2023/05/27 09:36:28;;;;;;;8.38;3.58;;;;;;;19.85;43.12;97141.28;10584784;28;20659;-67
2023/05/27 09:41:28;;;;;;;7.15;3.20;;;;;;;19.82;42.76;97121.22;10635076;28;20229;-66
2023/05/27 09:46:30;;;;;;;14.00;3.30;;;;;;;20.96;42.21;97139.59;10610801;28;20213;-67
2023/05/27 09:51:31;;;;;;;10.38;3.53;;;;;;;19.10;44.99;97138.69;10557526;28;20218;-67
2023/05/27 09:56:33;;;;;;;10.00;3.47;;;;;;;19.48;46.60;97185.97;10583227;28;20250;-67
2023/05/27 10:01:35;;;;;;;9.38;3.35;;;;;;;19.50;45.04;97152.88;10582065;28;20230;-67
2023/05/27 10:06:36;;;;;;;13.32;4.28;;;;;;;20.70;43.88;97167.97;10579679;28;20186;-67
2023/05/27 10:11:37;;;;;;;10.13;3.80;;;;;;;20.59;43.45;97144.63;10579672;28;20213;-66
2023/05/27 10:16:37;;;;;;;8.38;3.10;;;;;;;21.40;41.66;97131.78;10581676;28;20201;-67
2023/05/27 10:21:42;;;;;;;8.77;3.20;;;;;;;20.94;40.88;97102.50;10581667;28;20201;-67
2023/05/27 10:26:44;;;;;;;12.75;4.63;;;;;;;21.47;40.23;97095.22;10581124;28;20201;-67
2023/05/27 10:31:45;;;;;;;9.90;2.88;;;;;;;22.29;39.29;97095.13;10581311;28;20643;-67
2023/05/27 10:36:46;;;;;;;12.98;3.60;;;;;;;21.67;37.14;97007.94;10580393;28;20202;-67
2023/05/27 10:41:51;;;;;;;9.43;3.55;;;;;;;21.09;41.34;97109.44;10580609;28;20229;-67
2023/05/27 10:47:00;;;;;;;12.75;3.70;;;;;;;21.44;43.30;97171.13;10581713;28;20194;-67
2023/05/27 10:52:06;;;;;;;12.55;3.40;;;;;;;22.03;41.95;97150.38;10581891;28;20220;-67
2023/05/27 10:57:07;;;;;;;11.50;3.80;;;;;;;21.87;41.17;97119.75;10580107;28;20225;-66
2023/05/27 11:02:07;;;;;;;7.38;3.22;;;;;;;21.44;40.84;97106.31;10581468;28;20279;-66
2023/05/27 11:07:08;;;;;;;10.90;3.03;;;;;;;23.63;37.72;97088.88;10581545;28;20202;-66
2023/05/27 11:12:16;;;;;;;8.82;3.20;;;;;;;23.17;38.36;97094.91;10580286;28;20221;-67
2023/05/27 11:17:17;;;;;;;8.35;3.13;;;;;;;22.71;37.18;97028.53;10580866;28;20194;-67
2023/05/27 11:22:19;;;;;;;11.02;3.30;;;;;;;22.77;38.67;97088.22;10580256;28;20687;-66
2023/05/27 11:27:19;;;;;;;10.05;3.35;;;;;;;22.33;37.90;97040.28;10580519;28;20671;-66
2023/05/27 11:32:20;;;;;;;9.35;3.83;;;;;;;22.04;37.01;96993.81;10580568;28;20225;-66
2023/05/27 11:37:20;;;;;;;8.98;2.80;;;;;;;23.92;35.77;97034.69;10579792;28;20560;-66
2023/05/27 11:42:22;;;;;;;10.52;3.20;;;;;;;22.96;36.46;97004.31;10580030;28;20228;-66
2023/05/27 11:47:22;;;;;;;8.35;3.22;;;;;;;23.13;38.60;97076.66;10579567;28;20257;-67
2023/05/27 11:52:25;;;;;;;9.70;3.22;;;;;;;23.97;37.77;97074.97;10578696;28;20565;-66
2023/05/27 11:57:25;;;;;;;8.70;3.13;;;;;;;23.79;38.54;97083.88;10579644;28;20201;-67
2023/05/27 12:02:26;;;;;;;11.48;3.35;;;;;;;23.70;38.26;97059.31;10578990;28;20205;-66
2023/05/27 12:07:26;;;;;;;9.32;3.53;;;;;;;23.53;38.30;97047.69;10579329;28;20186;-67
2023/05/27 12:12:26;;;;;;;6.95;3.13;;;;;;;23.59;37.96;97036.88;10578140;28;20746;-66
2023/05/27 12:17:27;;;;;;;7.18;3.15;;;;;;;23.08;40.26;97076.50;10578372;28;20656;-67
2023/05/27 12:22:27;;;;;;;8.82;3.30;;;;;;;23.95;39.48;97079.72;10578436;28;20219;-67
2023/05/27 12:27:28;;;;;;;10.27;3.50;;;;;;;24.29;38.03;97055.81;10578347;28;20243;-66
2023/05/27 12:32:28;;;;;;;6.75;3.20;;;;;;;24.21;38.16;97044.44;10578052;28;20532;-67
2023/05/27 12:37:29;;;;;;;10.55;3.90;;;;;;;24.55;37.41;97036.53;10577498;28;20547;-66
2023/05/27 12:47:39;;;;;;;8.70;3.38;;;;;;;24.84;38.07;97059.88;10574516;28;20472;-66
2023/05/27 12:52:45;;;;;;;6.90;3.15;;;;;;;23.55;35.52;96933.28;10577307;28;20221;-65
2023/05/27 12:57:50;;;;;;;5.75;3.00;;;;;;;24.18;34.81;96951.22;10614430;27;20197;-66
2023/05/27 13:02:50;;;;;;;7.60;3.30;;;;;;;25.13;34.26;96966.03;10620733;27;20694;-66
2023/05/27 13:07:57;;;;;;;9.48;3.17;;;;;;;25.80;33.40;96955.25;10628499;27;20209;-66
2023/05/27 13:12:59;;;;;;;7.32;2.92;;;;;;;24.59;34.66;96953.06;10628111;27;20225;-68
2023/05/27 13:17:59;;;;;;;7.55;2.95;;;;;;;24.70;35.70;96987.00;10628505;27;20188;-67
2023/05/27 13:23:00;;;;;;;9.77;3.28;;;;;;;25.59;34.78;96989.03;10627811;27;20296;-66
2023/05/27 13:28:01;;;;;;;7.03;3.35;;;;;;;24.54;33.33;96876.06;10627764;27;20199;-67
2023/05/27 13:33:01;;;;;;;13.25;3.97;;;;;;;24.59;34.05;96908.31;10626823;27;20255;-67
2023/05/27 13:38:03;;;;;;;7.57;3.00;;;;;;;27.79;30.67;96937.75;10626469;27;20613;-67
2023/05/27 13:43:03;;;;;;;7.28;3.30;;;;;;;26.93;31.52;96915.38;10626143;27;20470;-65
2023/05/27 13:48:04;;;;;;;7.73;3.17;;;;;;;28.47;29.25;96891.16;10626662;27;20185;-67
2023/05/27 13:53:04;;;;;;;6.78;2.92;;;;;;;29.40;29.39;96934.34;10626414;27;20478;-67
2023/05/27 13:58:05;;;;;;;6.25;3.42;;;;;;;28.86;29.24;96892.56;10626224;27;20242;-67
2023/05/27 14:03:05;;;;;;;6.40;3.20;;;;;;;28.01;30.02;96880.25;10626047;27;20235;-66
2023/05/27 14:08:07;;;;;;;4.88;3.03;;;;;;;27.48;31.22;96893.75;10625656;27;20442;-67
2023/05/27 14:13:08;;;;;;;8.52;3.30;;;;;;;27.32;30.24;96847.91;10625145;27;20217;-67
2023/05/27 14:18:08;;;;;;;6.13;3.30;;;;;;;27.93;29.54;96852.75;10624742;27;20185;-66
2023/05/27 14:23:10;;;;;;;8.23;3.23;;;;;;;29.11;29.60;96892.53;10625060;27;20485;-66
2023/05/27 14:28:11;;;;;;;6.85;2.50;;;;;;;27.58;29.42;96835.38;10625158;27;20431;-67
2023/05/27 14:33:11;;;;;;;9.80;3.22;;;;;;;27.07;30.66;96858.50;10623406;27;20710;-65
2023/05/27 14:38:12;;;;;;;7.67;2.77;;;;;;;28.28;30.72;96904.31;10623235;27;20636;-67
2023/05/27 14:43:13;;;;;;;6.57;3.10;;;;;;;27.28;28.79;96808.31;10623790;27;20904;-66
2023/05/27 14:48:13;;;;;;;4.60;2.65;;;;;;;26.92;31.75;96875.31;10624438;27;20314;-66
2023/05/27 14:53:13;;;;;;;8.83;3.53;;;;;;;28.45;30.27;96891.41;10623770;27;20220;-67
2023/05/27 14:58:14;;;;;;;5.83;3.00;;;;;;;28.99;28.43;96846.97;10623815;27;20443;-66
2023/05/27 15:03:14;;;;;;;4.82;2.63;;;;;;;26.55;28.91;96744.41;10622111;27;20493;-66
2023/05/27 15:08:15;;;;;;;10.18;3.15;;;;;;;28.34;28.45;96808.94;10622954;27;20627;-67
2023/05/27 15:13:16;;;;;;;6.93;2.85;;;;;;;28.16;30.00;96857.94;10622717;27;20225;-67
2023/05/27 15:18:16;;;;;;;7.43;3.08;;;;;;;27.44;30.29;96839.63;10623249;27;20189;-67
2023/05/27 15:23:17;;;;;;;8.23;2.85;;;;;;;27.12;30.62;96816.31;10629827;27;20291;-67
2023/05/27 15:28:17;;;;;;;10.60;3.15;;;;;;;28.23;30.34;96859.31;10634394;27;20196;-66
2023/05/27 15:33:18;;;;;;;5.13;2.83;;;;;;;25.78;31.94;96812.44;10638537;27;20309;-67
2023/05/27 15:38:18;;;;;;;6.55;2.90;;;;;;;24.54;33.51;96803.75;10621736;27;20426;-67
2023/05/27 15:43:19;;;;;;;5.80;3.33;;;;;;;25.67;31.99;96812.56;10621705;27;20706;-67
2023/05/27 15:48:19;;;;;;;6.28;3.20;;;;;;;24.40;31.85;96739.00;10662816;27;20188;-66
2023/05/27 15:53:19;;;;;;;7.37;3.37;;;;;;;25.58;32.47;96821.06;10664712;27;20769;-67
2023/05/27 15:58:20;;;;;;;8.20;2.80;;;;;;;24.89;32.52;96768.66;10665029;27;20947;-67
2023/05/27 16:03:20;;;;;;;8.05;3.35;;;;;;;24.14;34.11;96792.13;10662320;27;20978;-67
2023/05/27 16:08:21;;;;;;;11.45;4.03;;;;;;;23.07;35.61;96802.28;10664099;27;20257;-67
2023/05/27 16:13:21;;;;;;;7.35;5.70;;;;;;;22.58;36.77;96818.53;10647708;27;20224;-67
2023/05/27 16:18:22;;;;;;;8.45;3.45;;;;;;;20.73;37.32;96751.41;10663897;27;20184;-66
2023/05/27 16:23:22;;;;;;;12.45;3.95;;;;;;;20.17;41.66;96859.47;10663444;27;20288;-65
2023/05/27 16:28:23;;;;;;;17.10;10.68;;;;;;;20.07;39.40;96806.75;10660577;27;20189;-66
2023/05/27 16:33:23;;;;;;;6.38;3.33;;;;;;;20.08;40.49;96827.00;10662397;27;20586;-67
2023/05/27 16:38:23;;;;;;;6.80;3.00;;;;;;;20.40;39.87;96835.78;10660555;27;20774;-67
2023/05/27 16:43:24;;;;;;;11.10;4.53;;;;;;;20.38;40.28;96832.50;10662346;27;20232;-66
2023/05/27 16:48:25;;;;;;;10.13;4.88;;;;;;;20.20;40.46;96827.94;10644173;27;20210;-67
2023/05/27 16:53:25;;;;;;;10.07;3.65;;;;;;;20.65;39.14;96808.38;10660493;27;20240;-67
2023/05/27 16:58:26;;;;;;;8.82;3.10;;;;;;;19.70;41.88;96835.75;10662736;27;20192;-67
2023/05/27 17:03:27;;;;;;;7.25;3.33;;;;;;;19.67;41.59;96829.03;10660039;27;20256;-65
2023/05/27 17:08:27;;;;;;;7.45;2.60;;;;;;;18.94;43.10;96840.66;10660374;27;20257;-66
2023/05/27 17:13:28;;;;;;;9.75;3.15;;;;;;;19.33;42.00;96841.63;10661420;27;20307;-67
2023/05/27 17:18:28;;;;;;;6.88;3.05;;;;;;;19.39;42.81;96862.03;10659574;27;20208;-67
2023/05/27 17:23:29;;;;;;;5.53;3.28;;;;;;;18.99;43.06;96843.53;10661713;27;20211;-67
2023/05/27 17:28:29;;;;;;;6.97;3.00;;;;;;;19.11;44.08;96875.59;10627755;27;20193;-66
2023/05/27 17:33:30;;;;;;;6.57;3.63;;;;;;;18.47;44.71;96869.03;10618705;28;20231;-67
2023/05/27 17:38:30;;;;;;;8.18;3.15;;;;;;;17.87;46.81;96901.50;10620049;27;20190;-66
2023/05/27 17:43:31;;;;;;;8.10;3.78;;;;;;;17.98;46.55;96905.44;10618765;28;20321;-67
2023/05/27 17:48:31;;;;;;;6.20;3.30;;;;;;;18.00;47.59;96930.72;10619712;27;20216;-66
2023/05/27 17:53:35;;;;;;;7.63;3.40;;;;;;;17.69;48.46;96925.03;10626519;27;20220;-66
2023/05/27 17:58:35;;;;;;;8.25;4.00;;;;;;;17.41;50.29;96961.19;10627757;27;20254;-66
2023/05/27 18:03:35;;;;;;;7.97;3.40;;;;;;;17.34;50.66;96965.59;10626670;27;20630;-67
2023/05/27 18:08:36;;;;;;;8.07;3.75;;;;;;;17.27;49.78;96940.91;10625573;27;20688;-65
2023/05/27 18:13:36;;;;;;;523.25;294.00;;;;;;;17.07;51.25;96961.94;10592581;27;20603;-65
2023/05/27 18:18:37;;;;;;;60.67;37.25;;;;;;;16.83;52.33;96971.91;10583424;28;20785;-65
2023/05/27 18:23:37;;;;;;;21.80;11.50;;;;;;;16.55;54.57;97008.84;10581949;28;20218;-67
2023/05/27 18:28:37;;;;;;;11.77;6.63;;;;;;;16.19;55.23;97009.66;10583294;28;20194;-67
2023/05/27 18:33:38;;;;;;;15.07;4.70;;;;;;;15.80;56.77;97024.81;10582394;28;20240;-66
2023/05/27 18:38:39;;;;;;;14.27;5.72;;;;;;;14.78;61.13;97070.81;10582975;28;20225;-67
2023/05/27 18:43:39;;;;;;;10.32;4.72;;;;;;;13.89;63.46;97080.72;10581905;28;20324;-67
2023/05/27 18:48:40;;;;;;;14.13;4.57;;;;;;;13.06;66.59;97095.69;10558894;22;20325;-65
2023/05/27 18:53:41;;;;;;;13.18;5.05;;;;;;;12.80;68.60;97106.31;10539645;28;20226;-66
2023/05/27 18:58:42;;;;;;;10.32;4.68;;;;;;;12.66;69.71;97100.72;10569889;28;20250;-66
2023/05/27 19:03:42;;;;;;;7.85;3.92;;;;;;;12.31;70.67;97096.47;10581774;28;20246;-66
2023/05/27 19:08:42;;;;;;;11.13;5.32;;;;;;;11.96;72.70;97111.41;10581406;28;20241;-65
2023/05/27 19:13:43;;;;;;;11.45;4.22;;;;;;;11.80;73.71;97092.91;10581407;28;20237;-66
2023/05/27 19:18:43;;;;;;;10.00;4.70;;;;;;;11.54;75.56;97106.84;10581334;28;20255;-65
2023/05/27 19:23:45;;;;;;;6.80;4.10;;;;;;;11.25;76.49;97107.91;10581026;28;20181;-66
2023/05/27 19:28:45;;;;;;;9.95;4.18;;;;;;;10.75;79.47;97113.66;10581066;28;20252;-66
2023/05/27 19:33:47;;;;;;;8.73;4.28;;;;;;;10.63;80.04;97115.66;10580399;28;20313;-66
2023/05/27 19:38:47;;;;;;;11.05;4.60;;;;;;;10.38;81.65;97117.16;10580537;28;20217;-65
2023/05/27 19:43:48;;;;;;;11.37;4.43;;;;;;;10.25;82.89;97112.25;10586273;28;20607;-65
2023/05/27 19:48:48;;;;;;;14.30;5.13;;;;;;;10.11;85.00;97124.00;10578215;28;20723;-65
2023/05/27 19:53:56;;;;;;;7.63;4.90;;;;;;;9.94;85.92;97125.59;10574982;28;20789;-66
2023/05/27 19:58:58;;;;;;;12.33;5.03;;;;;;;9.88;86.98;97111.25;10575927;28;20205;-66
2023/05/27 20:03:59;;;;;;;9.93;4.47;;;;;;;9.70;88.45;97119.00;10577689;28;20182;-67
2023/05/27 20:09:00;;;;;;;8.23;4.40;;;;;;;9.59;89.53;97122.59;10577788;28;20601;-67
2023/05/27 20:14:00;;;;;;;13.83;5.33;;;;;;;9.40;91.47;97122.63;10577221;28;20214;-66
2023/05/27 20:19:00;;;;;;;7.67;4.50;;;;;;;9.31;92.35;97129.53;10576795;28;20229;-66
2023/05/27 20:24:01;;;;;;;10.00;4.73;;;;;;;9.17;93.21;97129.94;10577724;28;20186;-66
2023/05/27 20:29:01;;;;;;;13.43;5.60;;;;;;;9.08;93.23;97131.56;10575471;28;20217;-66
2023/05/27 20:34:01;;;;;;;10.53;5.00;;;;;;;8.86;95.20;97133.47;10574352;28;20344;-66
2023/05/27 20:39:02;;;;;;;13.77;5.40;;;;;;;8.81;95.95;97127.03;10577306;28;20209;-66
2023/05/27 20:44:02;;;;;;;13.73;5.30;;;;;;;8.72;97.21;97133.88;10577422;28;20196;-66
2023/05/27 20:49:02;;;;;;;10.97;5.13;;;;;;;8.55;98.78;97127.50;10577339;28;20281;-66
2023/05/27 20:54:03;;;;;;;9.03;4.27;;;;;;;8.55;99.02;97130.13;10577708;28;20646;-66
2023/05/27 20:59:03;;;;;;;24.40;4.87;;;;;;;8.33;100.00;97128.50;10577715;28;20721;-66
2023/05/27 21:04:07;;;;;;;11.80;4.67;;;;;;;8.18;100.00;97126.25;10577755;28;20186;-66
2023/05/27 21:09:07;;;;;;;11.53;4.13;;;;;;;8.12;100.00;97116.34;10576591;28;20210;-66
2023/05/27 21:14:08;;;;;;;12.47;4.57;;;;;;;7.97;100.00;97122.88;10577374;28;20592;-67
2023/05/27 21:19:09;;;;;;;13.53;5.07;;;;;;;7.88;100.00;97118.44;10577344;28;20854;-66
2023/05/27 21:24:09;;;;;;;10.67;4.80;;;;;;;7.80;100.00;97114.66;10577266;28;20178;-67
2023/05/27 21:29:10;;;;;;;18.20;5.43;;;;;;;7.66;100.00;97121.03;10585531;28;20210;-66
2023/05/27 21:34:11;;;;;;;10.70;4.70;;;;;;;7.60;100.00;97113.72;10585347;28;20213;-66
2023/05/27 21:39:11;;;;;;;9.83;5.10;;;;;;;7.39;100.00;97116.34;10585520;28;20237;-66
2023/05/27 21:44:11;;;;;;;11.83;4.83;;;;;;;7.40;100.00;97115.38;10585063;28;20182;-66
2023/05/27 21:49:12;;;;;;;14.40;4.63;;;;;;;7.31;100.00;97113.53;10584756;28;20238;-66
2023/05/27 21:54:12;;;;;;;9.23;4.70;;;;;;;7.21;100.00;97120.44;10584902;28;20359;-66
2023/05/27 21:59:12;;;;;;;12.03;4.77;;;;;;;7.07;100.00;97122.41;10584785;28;20206;-66
2023/05/27 22:04:13;;;;;;;11.10;5.17;;;;;;;7.02;100.00;97121.13;10584940;28;20197;-66
2023/05/27 22:09:13;;;;;;;10.43;3.80;;;;;;;6.93;100.00;97120.91;10584154;28;20242;-66
2023/05/27 22:14:14;;;;;;;9.13;4.80;;;;;;;6.86;100.00;97116.31;10584121;28;20206;-67
2023/05/27 22:19:15;;;;;;;13.43;5.53;;;;;;;6.75;100.00;97112.81;10583791;28;20221;-66
2023/05/27 22:24:15;;;;;;;11.07;4.53;;;;;;;6.69;100.00;97109.84;10583632;28;20186;-65
2023/05/27 22:29:16;;;;;;;14.33;4.97;;;;;;;6.58;100.00;97100.28;10583501;28;20221;-67
2023/05/27 22:34:16;;;;;;;7.37;4.20;;;;;;;6.51;100.00;97109.53;10583273;28;20605;-67
2023/05/27 22:39:17;;;;;;;12.97;4.17;;;;;;;6.40;100.00;97108.63;10582401;28;20318;-66
2023/05/27 22:44:17;;;;;;;9.80;4.53;;;;;;;6.37;100.00;97106.25;10582057;28;20289;-67
2023/05/27 22:49:18;;;;;;;10.20;4.23;;;;;;;6.30;100.00;97096.47;10582427;28;20242;-66
2023/05/27 22:54:18;;;;;;;13.00;4.63;;;;;;;6.31;100.00;97090.28;10582194;28;20209;-67
2023/05/27 22:59:18;;;;;;;10.60;4.47;;;;;;;6.32;100.00;97084.16;10582333;28;20217;-67
2023/05/27 23:04:19;;;;;;;15.73;3.67;;;;;;;6.31;100.00;97080.72;10581513;28;20194;-66
2023/05/27 23:09:19;;;;;;;15.13;4.17;;;;;;;6.29;100.00;97069.59;10581928;28;20243;-67
2023/05/27 23:14:19;;;;;;;8.23;3.70;;;;;;;6.21;100.00;97077.19;10580997;28;20228;-67